sensor_id;sensor_type;location;lat;lon;timestamp;pressure;altitude;pressure_sealevel;temperature
53512;BMP280;39392;52.832;13.816;2023-02-28T00:00:31;102990.38;;;19.20
53512;BMP280;39392;52.832;13.816;2023-02-28T00:02:58;102987.28;;;19.13
53512;BMP280;39392;52.832;13.816;2023-02-28T00:05:25;102989.50;;;19.08
53512;BMP280;39392;52.832;13.816;2023-02-28T00:07:52;102994.31;;;19.04
53512;BMP280;39392;52.832;13.816;2023-02-28T00:10:19;102993.81;;;18.99
53512;BMP280;39392;52.832;13.816;2023-02-28T00:12:47;102987.75;;;18.96
53512;BMP280;39392;52.832;13.816;2023-02-28T00:15:14;102988.13;;;18.91
53512;BMP280;39392;52.832;13.816;2023-02-28T00:17:41;102999.38;;;18.86
53512;BMP280;39392;52.832;13.816;2023-02-28T00:20:07;102988.00;;;18.81
53512;BMP280;39392;52.832;13.816;2023-02-28T00:22:37;102987.38;;;18.78
53512;BMP280;39392;52.832;13.816;2023-02-28T00:25:03;102997.59;;;18.74
53512;BMP280;39392;52.832;13.816;2023-02-28T00:27:30;102988.81;;;18.71
53512;BMP280;39392;52.832;13.816;2023-02-28T00:29:56;102994.59;;;18.66
53512;BMP280;39392;52.832;13.816;2023-02-28T00:32:23;102990.25;;;18.63
53512;BMP280;39392;52.832;13.816;2023-02-28T00:34:49;102991.38;;;18.61
53512;BMP280;39392;52.832;13.816;2023-02-28T00:37:16;102995.19;;;18.58
53512;BMP280;39392;52.832;13.816;2023-02-28T00:39:42;102999.97;;;18.55
53512;BMP280;39392;52.832;13.816;2023-02-28T00:42:09;102993.91;;;18.51
53512;BMP280;39392;52.832;13.816;2023-02-28T00:44:35;103002.06;;;18.51
53512;BMP280;39392;52.832;13.816;2023-02-28T00:47:02;102994.16;;;18.48
53512;BMP280;39392;52.832;13.816;2023-02-28T00:49:28;102994.25;;;18.47
53512;BMP280;39392;52.832;13.816;2023-02-28T00:51:55;102993.53;;;18.45
53512;BMP280;39392;52.832;13.816;2023-02-28T00:54:22;103000.91;;;18.42
53512;BMP280;39392;52.832;13.816;2023-02-28T00:56:49;102997.56;;;18.39
53512;BMP280;39392;52.832;13.816;2023-02-28T00:59:17;103000.53;;;18.36
53512;BMP280;39392;52.832;13.816;2023-02-28T01:01:44;102997.06;;;18.34
53512;BMP280;39392;52.832;13.816;2023-02-28T01:04:12;102998.19;;;18.31
53512;BMP280;39392;52.832;13.816;2023-02-28T01:06:38;103001.97;;;18.29
53512;BMP280;39392;52.832;13.816;2023-02-28T01:09:06;102997.63;;;18.26
53512;BMP280;39392;52.832;13.816;2023-02-28T01:11:33;102996.03;;;18.24
53512;BMP280;39392;52.832;13.816;2023-02-28T01:14:00;102995.28;;;18.22
53512;BMP280;39392;52.832;13.816;2023-02-28T01:16:27;102991.06;;;18.17
53512;BMP280;39392;52.832;13.816;2023-02-28T01:18:53;102993.91;;;18.16
53512;BMP280;39392;52.832;13.816;2023-02-28T01:21:20;102996.75;;;18.14
53512;BMP280;39392;52.832;13.816;2023-02-28T01:23:47;102992.28;;;18.13
53512;BMP280;39392;52.832;13.816;2023-02-28T01:26:16;102988.81;;;18.11
53512;BMP280;39392;52.832;13.816;2023-02-28T01:28:43;102996.09;;;18.11
53512;BMP280;39392;52.832;13.816;2023-02-28T01:31:10;102993.63;;;18.08
53512;BMP280;39392;52.832;13.816;2023-02-28T01:33:37;102989.91;;;18.09
53512;BMP280;39392;52.832;13.816;2023-02-28T01:36:05;102994.47;;;18.08
53512;BMP280;39392;52.832;13.816;2023-02-28T01:38:32;102991.75;;;18.08
53512;BMP280;39392;52.832;13.816;2023-02-28T01:40:59;102990.03;;;18.07
53512;BMP280;39392;52.832;13.816;2023-02-28T01:43:27;102989.19;;;18.07
53512;BMP280;39392;52.832;13.816;2023-02-28T01:45:54;102987.44;;;18.06
53512;BMP280;39392;52.832;13.816;2023-02-28T01:48:22;102992.13;;;18.04
53512;BMP280;39392;52.832;13.816;2023-02-28T01:50:52;102991.25;;;18.03
53512;BMP280;39392;52.832;13.816;2023-02-28T01:53:21;102977.81;;;18.02
53512;BMP280;39392;52.832;13.816;2023-02-28T01:55:50;102990.47;;;18.01
53512;BMP280;39392;52.832;13.816;2023-02-28T01:58:19;102980.63;;;18.00
53512;BMP280;39392;52.832;13.816;2023-02-28T02:00:46;102987.03;;;17.99
53512;BMP280;39392;52.832;13.816;2023-02-28T02:03:13;102988.13;;;17.97
53512;BMP280;39392;52.832;13.816;2023-02-28T02:05:43;102987.47;;;17.93
53512;BMP280;39392;52.832;13.816;2023-02-28T02:08:16;102973.31;;;17.89
53512;BMP280;39392;52.832;13.816;2023-02-28T02:10:44;102984.03;;;17.91
53512;BMP280;39392;52.832;13.816;2023-02-28T02:15:51;102983.38;;;17.87
53512;BMP280;39392;52.832;13.816;2023-02-28T02:36:38;102979.72;;;17.76
53512;BMP280;39392;52.832;13.816;2023-02-28T02:41:45;102981.69;;;17.74
53512;BMP280;39392;52.832;13.816;2023-02-28T02:44:34;102986.25;;;17.73
53512;BMP280;39392;52.832;13.816;2023-02-28T02:47:21;102986.34;;;17.72
53512;BMP280;39392;52.832;13.816;2023-02-28T02:49:51;102985.59;;;17.70
53512;BMP280;39392;52.832;13.816;2023-02-28T02:52:20;102981.16;;;17.68
53512;BMP280;39392;52.832;13.816;2023-02-28T02:54:48;102989.28;;;17.68
53512;BMP280;39392;52.832;13.816;2023-02-28T02:57:17;102985.81;;;17.66
53512;BMP280;39392;52.832;13.816;2023-02-28T02:59:46;102988.53;;;17.66
53512;BMP280;39392;52.832;13.816;2023-02-28T03:02:15;102987.78;;;17.64
53512;BMP280;39392;52.832;13.816;2023-02-28T03:04:45;102989.72;;;17.62
53512;BMP280;39392;52.832;13.816;2023-02-28T03:07:12;102983.44;;;17.62
53512;BMP280;39392;52.832;13.816;2023-02-28T03:09:39;102989.00;;;17.60
53512;BMP280;39392;52.832;13.816;2023-02-28T03:12:06;102989.09;;;17.59
53512;BMP280;39392;52.832;13.816;2023-02-28T03:17:30;102990.28;;;17.55
53512;BMP280;39392;52.832;13.816;2023-02-28T03:25:07;102988.69;;;17.52
53512;BMP280;39392;52.832;13.816;2023-02-28T03:30:15;102995.06;;;17.51
53512;BMP280;39392;52.832;13.816;2023-02-28T03:32:50;103001.47;;;17.50
53512;BMP280;39392;52.832;13.816;2023-02-28T03:35:23;102996.16;;;17.49
53512;BMP280;39392;52.832;13.816;2023-02-28T03:37:56;102996.25;;;17.47
53512;BMP280;39392;52.832;13.816;2023-02-28T03:40:27;102993.53;;;17.47
53512;BMP280;39392;52.832;13.816;2023-02-28T03:42:58;103004.50;;;17.46
53512;BMP280;39392;52.832;13.816;2023-02-28T03:45:31;102998.22;;;17.45
53512;BMP280;39392;52.832;13.816;2023-02-28T03:48:03;103005.50;;;17.45
53512;BMP280;39392;52.832;13.816;2023-02-28T03:50:38;103001.06;;;17.43
53512;BMP280;39392;52.832;13.816;2023-02-28T03:53:10;103003.78;;;17.43
53512;BMP280;39392;52.832;13.816;2023-02-28T03:55:42;103000.81;;;17.47
53512;BMP280;39392;52.832;13.816;2023-02-28T04:00:59;103007.22;;;17.46
53512;BMP280;39392;52.832;13.816;2023-02-28T04:03:34;103008.94;;;17.47
53512;BMP280;39392;52.832;13.816;2023-02-28T04:06:01;103009.94;;;17.46
53512;BMP280;39392;52.832;13.816;2023-02-28T04:08:27;103011.78;;;17.45
53512;BMP280;39392;52.832;13.816;2023-02-28T04:11:00;103003.78;;;17.43
53512;BMP280;39392;52.832;13.816;2023-02-28T04:13:27;103013.84;;;17.41
53512;BMP280;39392;52.832;13.816;2023-02-28T04:15:53;103012.13;;;17.40
53512;BMP280;39392;52.832;13.816;2023-02-28T04:18:20;103019.38;;;17.40
53512;BMP280;39392;52.832;13.816;2023-02-28T04:20:46;103018.63;;;17.38
53512;BMP280;39392;52.832;13.816;2023-02-28T04:23:12;103015.91;;;17.38
53512;BMP280;39392;52.832;13.816;2023-02-28T04:25:39;103017.00;;;17.35
53512;BMP280;39392;52.832;13.816;2023-02-28T04:28:06;103014.31;;;17.35
53512;BMP280;39392;52.832;13.816;2023-02-28T04:30:33;103010.81;;;17.33
53512;BMP280;39392;52.832;13.816;2023-02-28T04:32:59;103010.94;;;17.32
53512;BMP280;39392;52.832;13.816;2023-02-28T04:35:26;103011.94;;;17.31
53512;BMP280;39392;52.832;13.816;2023-02-28T04:37:52;103014.72;;;17.29
53512;BMP280;39392;52.832;13.816;2023-02-28T04:40:19;103018.53;;;17.27
53512;BMP280;39392;52.832;13.816;2023-02-28T04:42:45;103017.56;;;17.28
53512;BMP280;39392;52.832;13.816;2023-02-28T04:45:12;103013.22;;;17.25
53512;BMP280;39392;52.832;13.816;2023-02-28T04:47:38;103017.75;;;17.25
53512;BMP280;39392;52.832;13.816;2023-02-28T04:50:05;103019.63;;;17.24
53512;BMP280;39392;52.832;13.816;2023-02-28T04:52:37;103021.47;;;17.24
53512;BMP280;39392;52.832;13.816;2023-02-28T04:55:04;103020.59;;;17.23
53512;BMP280;39392;52.832;13.816;2023-02-28T04:57:31;103029.59;;;17.24
53512;BMP280;39392;52.832;13.816;2023-02-28T04:59:58;103022.44;;;17.23
53512;BMP280;39392;52.832;13.816;2023-02-28T05:02:24;103026.09;;;17.22
53512;BMP280;39392;52.832;13.816;2023-02-28T05:04:51;103035.22;;;17.21
53512;BMP280;39392;52.832;13.816;2023-02-28T05:07:17;103037.19;;;17.18
53512;BMP280;39392;52.832;13.816;2023-02-28T05:09:44;103039.97;;;17.17
53512;BMP280;39392;52.832;13.816;2023-02-28T05:12:10;103033.81;;;17.15
53512;BMP280;39392;52.832;13.816;2023-02-28T05:14:37;103031.19;;;17.13
53512;BMP280;39392;52.832;13.816;2023-02-28T05:17:03;103039.44;;;17.12
53512;BMP280;39392;52.832;13.816;2023-02-28T05:19:30;103038.72;;;17.10
53512;BMP280;39392;52.832;13.816;2023-02-28T05:21:56;103043.22;;;17.09
53512;BMP280;39392;52.832;13.816;2023-02-28T05:24:22;103038.78;;;17.08
53512;BMP280;39392;52.832;13.816;2023-02-28T05:26:50;103043.34;;;17.08
53512;BMP280;39392;52.832;13.816;2023-02-28T05:29:18;103047.13;;;17.05
53512;BMP280;39392;52.832;13.816;2023-02-28T05:31:45;103049.84;;;17.05
53512;BMP280;39392;52.832;13.816;2023-02-28T05:34:12;103050.81;;;17.04
53512;BMP280;39392;52.832;13.816;2023-02-28T05:36:39;103042.81;;;17.03
53512;BMP280;39392;52.832;13.816;2023-02-28T05:39:06;103049.22;;;17.02
53512;BMP280;39392;52.832;13.816;2023-02-28T05:41:33;103042.16;;;16.99
53512;BMP280;39392;52.832;13.816;2023-02-28T05:43:59;103045.72;;;17.00
53512;BMP280;39392;52.832;13.816;2023-02-28T05:46:26;103054.94;;;16.97
53512;BMP280;39392;52.832;13.816;2023-02-28T05:48:53;103053.31;;;16.95
53512;BMP280;39392;52.832;13.816;2023-02-28T05:51:19;103063.16;;;16.96
53512;BMP280;39392;52.832;13.816;2023-02-28T05:53:46;103054.28;;;16.93
53512;BMP280;39392;52.832;13.816;2023-02-28T05:56:14;103057.75;;;16.96
53512;BMP280;39392;52.832;13.816;2023-02-28T05:58:41;103066.75;;;16.96
53512;BMP280;39392;52.832;13.816;2023-02-28T06:03:53;103062.31;;;16.95
53512;BMP280;39392;52.832;13.816;2023-02-28T06:06:19;103069.44;;;16.96
53512;BMP280;39392;52.832;13.816;2023-02-28T06:08:46;103073.13;;;16.95
53512;BMP280;39392;52.832;13.816;2023-02-28T06:11:12;103067.72;;;16.95
53512;BMP280;39392;52.832;13.816;2023-02-28T06:13:41;103065.13;;;16.93
53512;BMP280;39392;52.832;13.816;2023-02-28T06:16:09;103070.53;;;16.93
53512;BMP280;39392;52.832;13.816;2023-02-28T06:18:37;103075.19;;;16.91
53512;BMP280;39392;52.832;13.816;2023-02-28T06:21:03;103076.91;;;16.92
53512;BMP280;39392;52.832;13.816;2023-02-28T06:23:30;103077.03;;;16.91
53512;BMP280;39392;52.832;13.816;2023-02-28T06:25:56;103075.31;;;16.90
53512;BMP280;39392;52.832;13.816;2023-02-28T06:28:24;103085.34;;;16.88
53512;BMP280;39392;52.832;13.816;2023-02-28T06:30:51;103088.94;;;16.88
53512;BMP280;39392;52.832;13.816;2023-02-28T06:33:18;103088.31;;;16.85
53512;BMP280;39392;52.832;13.816;2023-02-28T06:35:46;103087.41;;;16.84
53512;BMP280;39392;52.832;13.816;2023-02-28T06:38:12;103083.94;;;16.82
53512;BMP280;39392;52.832;13.816;2023-02-28T06:40:39;103088.38;;;16.83
53512;BMP280;39392;52.832;13.816;2023-02-28T06:43:05;103086.53;;;16.84
53512;BMP280;39392;52.832;13.816;2023-02-28T06:45:32;103091.97;;;16.84
53512;BMP280;39392;52.832;13.816;2023-02-28T06:47:58;103089.38;;;16.82
53512;BMP280;39392;52.832;13.816;2023-02-28T06:50:26;103088.38;;;16.83
53512;BMP280;39392;52.832;13.816;2023-02-28T06:52:54;103082.09;;;16.83
53512;BMP280;39392;52.832;13.816;2023-02-28T06:55:21;103092.81;;;16.84
53512;BMP280;39392;52.832;13.816;2023-02-28T06:57:48;103093.72;;;16.85
53512;BMP280;39392;52.832;13.816;2023-02-28T07:00:16;103096.44;;;16.85
53512;BMP280;39392;52.832;13.816;2023-02-28T07:02:43;103092.81;;;16.84
53512;BMP280;39392;52.832;13.816;2023-02-28T07:05:09;103090.91;;;16.86
53512;BMP280;39392;52.832;13.816;2023-02-28T07:07:36;103097.06;;;16.88
53512;BMP280;39392;52.832;13.816;2023-02-28T07:10:04;103095.25;;;16.89
53512;BMP280;39392;52.832;13.816;2023-02-28T07:12:32;103099.38;;;16.95
53512;BMP280;39392;52.832;13.816;2023-02-28T07:14:58;103110.75;;;17.00
53512;BMP280;39392;52.832;13.816;2023-02-28T07:17:25;103108.56;;;17.05
53512;BMP280;39392;52.832;13.816;2023-02-28T07:19:51;103118.22;;;17.09
53512;BMP280;39392;52.832;13.816;2023-02-28T07:22:18;103110.75;;;17.12
53512;BMP280;39392;52.832;13.816;2023-02-28T07:24:44;103108.84;;;17.14
53512;BMP280;39392;52.832;13.816;2023-02-28T07:27:11;103109.56;;;17.16
53512;BMP280;39392;52.832;13.816;2023-02-28T07:29:37;103117.50;;;17.20
53512;BMP280;39392;52.832;13.816;2023-02-28T07:32:04;103114.59;;;17.23
53512;BMP280;39392;52.832;13.816;2023-02-28T07:34:31;103114.47;;;17.24
53512;BMP280;39392;52.832;13.816;2023-02-28T07:36:57;103107.97;;;17.27
53512;BMP280;39392;52.832;13.816;2023-02-28T07:39:24;103105.28;;;17.27
53512;BMP280;39392;52.832;13.816;2023-02-28T07:41:50;103107.66;;;17.31
53512;BMP280;39392;52.832;13.816;2023-02-28T07:44:17;103107.31;;;17.36
53512;BMP280;39392;52.832;13.816;2023-02-28T07:46:43;103102.66;;;17.38
53512;BMP280;39392;52.832;13.816;2023-02-28T07:49:10;103107.84;;;17.41
53512;BMP280;39392;52.832;13.816;2023-02-28T07:51:36;103108.53;;;17.45
53512;BMP280;39392;52.832;13.816;2023-02-28T07:54:03;103107.41;;;17.47
53512;BMP280;39392;52.832;13.816;2023-02-28T07:56:29;103109.91;;;17.50
53512;BMP280;39392;52.832;13.816;2023-02-28T07:58:57;103107.75;;;17.55
53512;BMP280;39392;52.832;13.816;2023-02-28T08:01:23;103112.84;;;17.60
53512;BMP280;39392;52.832;13.816;2023-02-28T08:03:50;103113.38;;;17.65
53512;BMP280;39392;52.832;13.816;2023-02-28T08:06:18;103111.22;;;17.70
53512;BMP280;39392;52.832;13.816;2023-02-28T08:08:45;103104.50;;;17.76
53512;BMP280;39392;52.832;13.816;2023-02-28T08:11:12;103105.16;;;17.79
53512;BMP280;39392;52.832;13.816;2023-02-28T08:13:38;103105.69;;;17.84
53512;BMP280;39392;52.832;13.816;2023-02-28T08:16:05;103101.66;;;17.90
53512;BMP280;39392;52.832;13.816;2023-02-28T08:18:32;103104.03;;;17.95
53512;BMP280;39392;52.832;13.816;2023-02-28T08:20:58;103102.84;;;17.99
53512;BMP280;39392;52.832;13.816;2023-02-28T08:23:25;103108.06;;;18.02
53512;BMP280;39392;52.832;13.816;2023-02-28T08:25:55;103099.66;;;18.05
53512;BMP280;39392;52.832;13.816;2023-02-28T08:28:22;103102.16;;;18.08
53512;BMP280;39392;52.832;13.816;2023-02-28T08:30:52;103110.94;;;18.11
53512;BMP280;39392;52.832;13.816;2023-02-28T08:33:18;103107.91;;;18.16
53512;BMP280;39392;52.832;13.816;2023-02-28T08:35:45;103101.25;;;18.20
53512;BMP280;39392;52.832;13.816;2023-02-28T08:38:12;103105.13;;;18.29
53512;BMP280;39392;52.832;13.816;2023-02-28T08:40:38;103111.38;;;18.42
53512;BMP280;39392;52.832;13.816;2023-02-28T08:43:05;103105.03;;;18.54
53512;BMP280;39392;52.832;13.816;2023-02-28T08:45:31;103105.09;;;18.65
53512;BMP280;39392;52.832;13.816;2023-02-28T08:47:58;103102.69;;;18.74
53512;BMP280;39392;52.832;13.816;2023-02-28T08:50:24;103106.66;;;18.81
53512;BMP280;39392;52.832;13.816;2023-02-28T08:52:51;103114.22;;;18.88
53512;BMP280;39392;52.832;13.816;2023-02-28T08:55:17;103110.03;;;18.96
53512;BMP280;39392;52.832;13.816;2023-02-28T08:57:44;103118.59;;;19.02
53512;BMP280;39392;52.832;13.816;2023-02-28T09:00:10;103113.53;;;19.09
53512;BMP280;39392;52.832;13.816;2023-02-28T09:02:40;103108.50;;;19.15
53512;BMP280;39392;52.832;13.816;2023-02-28T09:05:09;103116.16;;;19.22
53512;BMP280;39392;52.832;13.816;2023-02-28T09:07:35;103109.28;;;19.29
53512;BMP280;39392;52.832;13.816;2023-02-28T09:10:02;103115.09;;;19.35
53512;BMP280;39392;52.832;13.816;2023-02-28T09:12:28;103108.31;;;19.41
53512;BMP280;39392;52.832;13.816;2023-02-28T09:14:58;103114.22;;;19.46
53512;BMP280;39392;52.832;13.816;2023-02-28T09:17:24;103102.25;;;19.49
53512;BMP280;39392;52.832;13.816;2023-02-28T09:19:56;103111.03;;;19.52
53512;BMP280;39392;52.832;13.816;2023-02-28T09:22:23;103111.16;;;19.51
53512;BMP280;39392;52.832;13.816;2023-02-28T09:24:50;103103.97;;;19.50
53512;BMP280;39392;52.832;13.816;2023-02-28T09:27:16;103107.78;;;19.47
53512;BMP280;39392;52.832;13.816;2023-02-28T09:29:42;103109.66;;;19.47
53512;BMP280;39392;52.832;13.816;2023-02-28T09:32:09;103106.94;;;19.47
53512;BMP280;39392;52.832;13.816;2023-02-28T09:34:36;103104.22;;;19.47
53512;BMP280;39392;52.832;13.816;2023-02-28T09:37:03;103104.13;;;19.48
53512;BMP280;39392;52.832;13.816;2023-02-28T09:39:30;103102.97;;;19.51
53512;BMP280;39392;52.832;13.816;2023-02-28T09:41:57;103108.31;;;19.52
53512;BMP280;39392;52.832;13.816;2023-02-28T09:44:37;103105.47;;;19.54
53512;BMP280;39392;52.832;13.816;2023-02-28T09:47:47;103102.63;;;19.55
53512;BMP280;39392;52.832;13.816;2023-02-28T09:49:54;103104.38;;;19.56
53512;BMP280;39392;52.832;13.816;2023-02-28T09:52:26;103105.97;;;19.59
53512;BMP280;39392;52.832;13.816;2023-02-28T09:54:54;103113.91;;;19.62
53512;BMP280;39392;52.832;13.816;2023-02-28T09:57:35;103110.19;;;19.63
53512;BMP280;39392;52.832;13.816;2023-02-28T10:00:13;103107.63;;;19.61
53512;BMP280;39392;52.832;13.816;2023-02-28T10:02:56;103112.91;;;19.63
53512;BMP280;39392;52.832;13.816;2023-02-28T10:05:37;103109.47;;;19.61
53512;BMP280;39392;52.832;13.816;2023-02-28T10:08:15;103114.13;;;19.59
53512;BMP280;39392;52.832;13.816;2023-02-28T10:10:44;103111.41;;;19.59
53512;BMP280;39392;52.832;13.816;2023-02-28T10:13:16;103115.13;;;19.58
53512;BMP280;39392;52.832;13.816;2023-02-28T10:15:46;103119.56;;;19.59
53512;BMP280;39392;52.832;13.816;2023-02-28T10:18:14;103127.00;;;19.57
53512;BMP280;39392;52.832;13.816;2023-02-28T10:20:44;103126.13;;;19.56
53512;BMP280;39392;52.832;13.816;2023-02-28T10:25:45;103121.56;;;19.57
53512;BMP280;39392;52.832;13.816;2023-02-28T10:28:14;103127.97;;;19.56
53512;BMP280;39392;52.832;13.816;2023-02-28T10:30:48;103123.41;;;19.56
53512;BMP280;39392;52.832;13.816;2023-02-28T10:33:25;103126.13;;;19.56
53512;BMP280;39392;52.832;13.816;2023-02-28T10:35:54;103123.41;;;19.56
53512;BMP280;39392;52.832;13.816;2023-02-28T10:38:25;103110.03;;;19.53
53512;BMP280;39392;52.832;13.816;2023-02-28T10:41:03;103109.91;;;19.55
53512;BMP280;39392;52.832;13.816;2023-02-28T10:43:30;103101.75;;;19.55
53512;BMP280;39392;52.832;13.816;2023-02-28T10:48:30;103080.13;;;19.53
53512;BMP280;39392;52.832;13.816;2023-02-28T10:50:58;103075.56;;;19.54
53512;BMP280;39392;52.832;13.816;2023-02-28T10:56:03;103069.25;;;19.53
53512;BMP280;39392;52.832;13.816;2023-02-28T11:01:22;103070.97;;;19.54
53512;BMP280;39392;52.832;13.816;2023-02-28T11:03:49;103060.94;;;19.55
53512;BMP280;39392;52.832;13.816;2023-02-28T11:06:17;103067.25;;;19.55
53512;BMP280;39392;52.832;13.816;2023-02-28T11:08:49;103067.16;;;19.57
53512;BMP280;39392;52.832;13.816;2023-02-28T11:11:17;103062.81;;;19.54
53512;BMP280;39392;52.832;13.816;2023-02-28T11:13:45;103072.47;;;19.58
53512;BMP280;39392;52.832;13.816;2023-02-28T11:16:13;103076.84;;;19.61
53512;BMP280;39392;52.832;13.816;2023-02-28T11:21:18;103074.09;;;19.61
53512;BMP280;39392;52.832;13.816;2023-02-28T11:23:45;103074.84;;;19.63
53512;BMP280;39392;52.832;13.816;2023-02-28T11:26:12;103074.84;;;19.63
53512;BMP280;39392;52.832;13.816;2023-02-28T11:28:39;103081.28;;;19.62
53512;BMP280;39392;52.832;13.816;2023-02-28T11:33:43;103074.97;;;19.61
53512;BMP280;39392;52.832;13.816;2023-02-28T11:36:12;103080.28;;;19.63
53512;BMP280;39392;52.832;13.816;2023-02-28T11:38:40;103076.69;;;19.62
53512;BMP280;39392;52.832;13.816;2023-02-28T11:51:15;103078.56;;;19.62
53512;BMP280;39392;52.832;13.816;2023-02-28T11:56:14;103066.81;;;19.61
53512;BMP280;39392;52.832;13.816;2023-02-28T12:01:22;103057.78;;;19.61
53512;BMP280;39392;52.832;13.816;2023-02-28T12:06:32;103055.28;;;19.58
53512;BMP280;39392;52.832;13.816;2023-02-28T12:09:23;103047.97;;;19.58
53512;BMP280;39392;52.832;13.816;2023-02-28T12:11:55;103040.91;;;19.56
53512;BMP280;39392;52.832;13.816;2023-02-28T12:27:21;103007.78;;;19.51
53512;BMP280;39392;52.832;13.816;2023-02-28T12:32:26;102999.78;;;19.49
53512;BMP280;39392;52.832;13.816;2023-02-28T12:34:55;102992.59;;;19.48
53512;BMP280;39392;52.832;13.816;2023-02-28T12:37:25;102979.00;;;19.48
53512;BMP280;39392;52.832;13.816;2023-02-28T12:39:56;102975.53;;;19.46
53512;BMP280;39392;52.832;13.816;2023-02-28T12:42:27;102974.66;;;19.46
53512;BMP280;39392;52.832;13.816;2023-02-28T12:45:02;102966.50;;;19.46
53512;BMP280;39392;52.832;13.816;2023-02-28T12:47:31;102972.94;;;19.45
53512;BMP280;39392;52.832;13.816;2023-02-28T12:50:07;102973.91;;;19.44
53512;BMP280;39392;52.832;13.816;2023-02-28T12:52:40;102970.47;;;19.41
53512;BMP280;39392;52.832;13.816;2023-02-28T12:55:11;102966.03;;;19.40
53512;BMP280;39392;52.832;13.816;2023-02-28T12:57:42;102966.13;;;19.39
53512;BMP280;39392;52.832;13.816;2023-02-28T13:10:43;102962.94;;;19.34
53512;BMP280;39392;52.832;13.816;2023-02-28T13:13:13;102962.22;;;19.32
53512;BMP280;39392;52.832;13.816;2023-02-28T13:15:41;102962.31;;;19.30
53512;BMP280;39392;52.832;13.816;2023-02-28T13:18:27;102959.59;;;19.30
53512;BMP280;39392;52.832;13.816;2023-02-28T13:20:55;102967.88;;;19.29
53512;BMP280;39392;52.832;13.816;2023-02-28T13:26:06;102963.69;;;19.25
53512;BMP280;39392;52.832;13.816;2023-02-28T13:31:15;102968.63;;;19.20
53512;BMP280;39392;52.832;13.816;2023-02-28T13:38:44;102956.28;;;19.15
53512;BMP280;39392;52.832;13.816;2023-02-28T13:46:30;102963.94;;;19.10
53512;BMP280;39392;52.832;13.816;2023-02-28T13:49:17;102951.44;;;19.08
53512;BMP280;39392;52.832;13.816;2023-02-28T13:51:44;102940.94;;;19.03
53512;BMP280;39392;52.832;13.816;2023-02-28T13:57:10;102949.34;;;19.00
53512;BMP280;39392;52.832;13.816;2023-02-28T14:02:41;102940.56;;;18.97
53512;BMP280;39392;52.832;13.816;2023-02-28T14:05:19;102943.56;;;18.94
53512;BMP280;39392;52.832;13.816;2023-02-28T14:07:55;102942.78;;;18.91
53512;BMP280;39392;52.832;13.816;2023-02-28T14:15:38;102938.72;;;18.86
53512;BMP280;39392;52.832;13.816;2023-02-28T14:18:14;102934.25;;;18.85
53512;BMP280;39392;52.832;13.816;2023-02-28T14:20:42;102929.94;;;18.82
53512;BMP280;39392;52.832;13.816;2023-02-28T14:23:21;102931.81;;;18.82
53512;BMP280;39392;52.832;13.816;2023-02-28T14:31:13;102936.84;;;18.75
53512;BMP280;39392;52.832;13.816;2023-02-28T14:33:55;102932.50;;;18.73
53512;BMP280;39392;52.832;13.816;2023-02-28T14:36:26;102928.94;;;18.72
53512;BMP280;39392;52.832;13.816;2023-02-28T14:38:57;102926.34;;;18.71
53512;BMP280;39392;52.832;13.816;2023-02-28T14:41:33;102931.03;;;18.69
53512;BMP280;39392;52.832;13.816;2023-02-28T14:44:23;102932.84;;;18.68
53512;BMP280;39392;52.832;13.816;2023-02-28T14:46:57;102932.13;;;18.66
53512;BMP280;39392;52.832;13.816;2023-02-28T14:49:28;102926.69;;;18.66
53512;BMP280;39392;52.832;13.816;2023-02-28T14:54:40;102917.19;;;18.60
53512;BMP280;39392;52.832;13.816;2023-02-28T14:57:19;102922.72;;;18.59
53512;BMP280;39392;52.832;13.816;2023-02-28T14:59:46;102924.56;;;18.58
53512;BMP280;39392;52.832;13.816;2023-02-28T15:02:24;102917.50;;;18.56
53512;BMP280;39392;52.832;13.816;2023-02-28T15:04:58;102923.84;;;18.56
53512;BMP280;39392;52.832;13.816;2023-02-28T15:07:25;102923.84;;;18.56
53512;BMP280;39392;52.832;13.816;2023-02-28T15:10:08;102918.50;;;18.55
53512;BMP280;39392;52.832;13.816;2023-02-28T15:12:35;102914.94;;;18.54
53512;BMP280;39392;52.832;13.816;2023-02-28T15:15:03;102911.34;;;18.54
53512;BMP280;39392;52.832;13.816;2023-02-28T15:17:29;102909.63;;;18.53
53512;BMP280;39392;52.832;13.816;2023-02-28T15:19:56;102915.91;;;18.53
53512;BMP280;39392;52.832;13.816;2023-02-28T15:22:26;102906.91;;;18.53
53512;BMP280;39392;52.832;13.816;2023-02-28T15:24:55;102911.59;;;18.51
53512;BMP280;39392;52.832;13.816;2023-02-28T15:27:23;102907.28;;;18.48
53512;BMP280;39392;52.832;13.816;2023-02-28T15:29:53;102906.41;;;18.48
53512;BMP280;39392;52.832;13.816;2023-02-28T15:32:25;102904.66;;;18.47
53512;BMP280;39392;52.832;13.816;2023-02-28T15:34:52;102905.53;;;18.47
53512;BMP280;39392;52.832;13.816;2023-02-28T15:39:53;102904.78;;;18.45
53512;BMP280;39392;52.832;13.816;2023-02-28T15:42:22;102903.06;;;18.44
53512;BMP280;39392;52.832;13.816;2023-02-28T15:44:49;102904.03;;;18.43
53512;BMP280;39392;52.832;13.816;2023-02-28T15:49:49;102906.03;;;18.41
53512;BMP280;39392;52.832;13.816;2023-02-28T15:52:26;102907.88;;;18.40
53512;BMP280;39392;52.832;13.816;2023-02-28T15:54:54;102899.97;;;18.37
53512;BMP280;39392;52.832;13.816;2023-02-28T15:57:22;102899.81;;;18.39
53512;BMP280;39392;52.832;13.816;2023-02-28T15:59:51;102899.09;;;18.37
53512;BMP280;39392;52.832;13.816;2023-02-28T16:02:20;102894.66;;;18.36
53512;BMP280;39392;52.832;13.816;2023-02-28T16:04:57;102903.66;;;18.36
53512;BMP280;39392;52.832;13.816;2023-02-28T16:07:24;102902.91;;;18.34
53512;BMP280;39392;52.832;13.816;2023-02-28T16:09:51;102898.47;;;18.33
53512;BMP280;39392;52.832;13.816;2023-02-28T16:12:19;102896.75;;;18.32